Time;durP1;ratioP1;P1;durP2;ratioP2;P2;SDS_P1;SDS_P2;PMS_P1;PMS_P2;Temp;Humidity;BMP_temperature;BMP_pressure;BME280_temperature;BME280_humidity;BME280_pressure;Samples;Min_cycle;Max_cycle;Signal;HPM_P1;HPM_P2
2021/12/08 00:01:00;;;;;;;23.80;10.00;;;;;;;;;;5053173;28;20148;-85
2021/12/08 00:03:28;;;;;;;20.92;10.20;;;;;;;;;;5035857;28;20034;-86
2021/12/08 00:05:53;;;;;;;20.90;9.98;;;;;;;;;;5052464;28;20055;-87
2021/12/08 00:08:20;;;;;;;20.63;10.52;;;;;;;;;;5037488;28;20033;-87
2021/12/08 00:13:15;;;;;;;23.75;12.27;;;;;;;;;;5069261;28;20419;-86
2021/12/08 00:15:43;;;;;;;22.98;11.02;;;;;;;;;;5020071;28;20186;-86
2021/12/08 00:18:12;;;;;;;23.73;11.95;;;;;;;;;;5053013;28;20495;-86
2021/12/08 00:20:38;;;;;;;17.83;10.45;;;;;;;;;;5069561;28;20033;-86
2021/12/08 00:23:04;;;;;;;21.80;11.40;;;;;;;;;;5036997;28;20448;-86
2021/12/08 00:25:29;;;;;;;18.50;9.57;;;;;;;;;;5036086;28;20407;-86
2021/12/08 00:27:55;;;;;;;19.20;9.43;;;;;;;;;;5052202;28;20025;-85
2021/12/08 00:30:21;;;;;;;20.63;10.93;;;;;;;;;;5038152;28;20087;-85
2021/12/08 00:32:47;;;;;;;21.73;10.65;;;;;;;;;;5052512;28;20025;-86
2021/12/08 00:35:12;;;;;;;19.98;10.43;;;;;;;;;;5052014;28;20030;-86
2021/12/08 00:37:38;;;;;;;21.30;10.07;;;;;;;;;;5052063;28;20035;-86
2021/12/08 00:40:05;;;;;;;17.42;9.80;;;;;;;;;;5035206;28;20029;-87
2021/12/08 00:42:31;;;;;;;23.83;13.10;;;;;;;;;;5052188;28;20453;-87
2021/12/08 00:44:58;;;;;;;20.70;10.98;;;;;;;;;;5068871;28;20034;-86
2021/12/08 00:47:24;;;;;;;21.88;11.25;;;;;;;;;;5051872;28;20102;-87
2021/12/08 00:49:49;;;;;;;24.05;12.57;;;;;;;;;;5053680;28;20025;-86
2021/12/08 00:52:15;;;;;;;21.00;11.38;;;;;;;;;;5052240;28;20029;-86
2021/12/08 00:54:41;;;;;;;23.63;10.90;;;;;;;;;;5035854;28;20177;-87
2021/12/08 00:57:06;;;;;;;21.10;11.18;;;;;;;;;;5035390;28;20037;-86
2021/12/08 00:59:32;;;;;;;21.23;11.57;;;;;;;;;;5067870;28;20128;-86
2021/12/08 01:02:02;;;;;;;21.98;11.63;;;;;;;;;;5051344;28;20036;-86
2021/12/08 01:04:29;;;;;;;24.13;10.82;;;;;;;;;;5035128;28;20029;-87
2021/12/08 01:06:54;;;;;;;23.25;11.65;;;;;;;;;;5034730;28;20041;-86
2021/12/08 01:09:20;;;;;;;27.88;13.20;;;;;;;;;;5036035;28;20108;-87
2021/12/08 01:11:46;;;;;;;24.48;11.85;;;;;;;;;;5051724;28;20033;-84
2021/12/08 01:14:12;;;;;;;25.60;12.30;;;;;;;;;;5035253;28;20038;-86
2021/12/08 01:16:37;;;;;;;25.95;11.27;;;;;;;;;;5035591;28;20041;-86
2021/12/08 01:19:03;;;;;;;20.85;11.57;;;;;;;;;;5035852;28;20373;-85
2021/12/08 01:21:29;;;;;;;23.95;11.50;;;;;;;;;;5018616;28;20379;-85
2021/12/08 01:23:54;;;;;;;24.42;12.32;;;;;;;;;;5036359;28;20068;-85
2021/12/08 01:26:19;;;;;;;27.17;12.20;;;;;;;;;;5034999;28;20417;-86
2021/12/08 01:28:45;;;;;;;25.67;12.85;;;;;;;;;;5040157;28;20064;-85
2021/12/08 01:31:11;;;;;;;27.25;13.48;;;;;;;;;;5052162;28;20376;-85
2021/12/08 01:33:37;;;;;;;25.58;12.98;;;;;;;;;;5051365;28;20025;-85
2021/12/08 01:36:03;;;;;;;24.48;12.60;;;;;;;;;;5051196;28;20033;-85
2021/12/08 01:38:29;;;;;;;22.98;11.40;;;;;;;;;;5050849;28;20439;-87
2021/12/08 01:40:55;;;;;;;25.77;12.35;;;;;;;;;;5034262;28;20033;-86
2021/12/08 01:43:26;;;;;;;24.98;12.52;;;;;;;;;;5034535;28;20029;-85
2021/12/08 01:46:00;;;;;;;27.83;12.57;;;;;;;;;;5034830;28;20037;-87
2021/12/08 01:48:28;;;;;;;26.88;12.15;;;;;;;;;;5050380;28;20031;-86
2021/12/08 01:50:57;;;;;;;25.65;12.60;;;;;;;;;;5051500;28;20059;-86
2021/12/08 01:53:22;;;;;;;25.08;12.82;;;;;;;;;;5034099;28;20056;-86
2021/12/08 01:55:48;;;;;;;24.27;12.95;;;;;;;;;;5033794;28;20465;-85
2021/12/08 01:58:14;;;;;;;24.75;12.55;;;;;;;;;;5034468;28;20040;-86
2021/12/08 02:00:51;;;;;;;26.35;13.48;;;;;;;;;;5033975;28;20456;-86
2021/12/08 02:03:17;;;;;;;23.88;12.02;;;;;;;;;;5066667;28;20423;-86
2021/12/08 02:05:42;;;;;;;24.85;12.27;;;;;;;;;;5038114;28;20037;-87
2021/12/08 02:08:08;;;;;;;26.80;12.90;;;;;;;;;;5034217;28;20360;-86
2021/12/08 02:10:36;;;;;;;26.33;12.80;;;;;;;;;;5069264;28;20025;-87
2021/12/08 02:13:02;;;;;;;24.77;11.52;;;;;;;;;;5033948;28;20029;-85
2021/12/08 02:15:27;;;;;;;28.48;13.57;;;;;;;;;;5033691;28;20091;-86
2021/12/08 02:17:54;;;;;;;22.63;12.18;;;;;;;;;;5034490;28;20048;-87
2021/12/08 02:20:20;;;;;;;23.77;11.20;;;;;;;;;;5066661;28;20456;-85
2021/12/08 02:22:46;;;;;;;24.52;12.25;;;;;;;;;;5049837;28;20056;-85
2021/12/08 02:25:15;;;;;;;28.30;13.68;;;;;;;;;;5034566;28;20108;-87
2021/12/08 02:27:40;;;;;;;32.85;15.57;;;;;;;;;;5049716;28;20044;-85
2021/12/08 02:30:16;;;;;;;26.88;12.90;;;;;;;;;;5035226;28;20419;-85
2021/12/08 02:49:07;;;;;;;30.80;13.90;;;;;;;;;;5057133;28;20157;-86
2021/12/08 02:51:33;;;;;;;30.55;13.07;;;;;;;;;;5063035;28;20033;-86
2021/12/08 02:53:59;;;;;;;30.08;13.23;;;;;;;;;;5050264;28;20051;-86
2021/12/08 02:56:24;;;;;;;28.52;13.13;;;;;;;;;;5058438;28;20104;-86
2021/12/08 02:58:50;;;;;;;31.98;14.10;;;;;;;;;;5066404;28;20033;-87
2021/12/08 03:01:15;;;;;;;27.75;13.77;;;;;;;;;;5036172;28;20108;-86
2021/12/08 03:03:42;;;;;;;24.73;12.18;;;;;;;;;;5069659;28;20028;-86
2021/12/08 03:06:07;;;;;;;30.40;12.85;;;;;;;;;;5052557;28;20029;-86
2021/12/08 03:08:33;;;;;;;31.50;11.20;;;;;;;;;;5069477;28;20036;-86
2021/12/08 03:10:58;;;;;;;31.30;13.70;;;;;;;;;;5055301;28;20066;-86
2021/12/08 03:13:37;;;;;;;32.63;14.32;;;;;;;;;;5071332;28;20040;-86
2021/12/08 03:16:03;;;;;;;32.47;13.88;;;;;;;;;;5052952;28;20029;-85
2021/12/08 03:18:34;;;;;;;33.50;14.32;;;;;;;;;;5021724;28;20053;-85
2021/12/08 03:21:00;;;;;;;29.33;13.02;;;;;;;;;;5041581;28;20024;-85
2021/12/08 03:23:33;;;;;;;33.72;15.07;;;;;;;;;;5075238;28;20020;-84
2021/12/08 03:26:01;;;;;;;33.40;15.75;;;;;;;;;;5055162;28;20443;-85
2021/12/08 03:28:31;;;;;;;32.58;14.30;;;;;;;;;;5056886;28;20032;-84
2021/12/08 03:31:04;;;;;;;37.72;17.70;;;;;;;;;;5040314;28;20033;-86
2021/12/08 03:33:30;;;;;;;33.83;14.07;;;;;;;;;;5040623;28;20032;-86
2021/12/08 03:35:55;;;;;;;35.55;15.07;;;;;;;;;;5057084;28;20040;-86
2021/12/08 03:38:21;;;;;;;32.13;13.50;;;;;;;;;;5039986;28;20064;-84
2021/12/08 03:40:48;;;;;;;35.35;15.98;;;;;;;;;;5061549;28;20009;-83
2021/12/08 03:43:14;;;;;;;37.80;15.32;;;;;;;;;;5080269;28;20047;-84
2021/12/08 03:45:44;;;;;;;32.83;15.68;;;;;;;;;;5079616;28;20752;-82
2021/12/08 03:48:21;;;;;;;36.40;14.95;;;;;;;;;;5077203;28;20057;-84
2021/12/08 03:50:47;;;;;;;37.85;16.77;;;;;;;;;;5063763;28;20019;-85
2021/12/08 03:53:13;;;;;;;37.95;15.85;;;;;;;;;;5078787;28;20025;-84
2021/12/08 03:55:45;;;;;;;35.42;16.10;;;;;;;;;;5093688;28;20351;-86
2021/12/08 03:58:11;;;;;;;37.35;16.20;;;;;;;;;;5056123;28;20451;-86
2021/12/08 04:00:37;;;;;;;37.97;14.98;;;;;;;;;;5039187;28;20045;-85
2021/12/08 04:03:05;;;;;;;52.92;17.60;;;;;;;;;;5039495;28;20028;-86
2021/12/08 04:05:40;;;;;;;40.15;17.65;;;;;;;;;;5072725;28;20110;-85
2021/12/08 04:08:15;;;;;;;37.28;15.88;;;;;;;;;;5055864;28;20025;-86
2021/12/08 04:10:42;;;;;;;35.05;15.77;;;;;;;;;;5073547;28;20060;-84
2021/12/08 04:13:07;;;;;;;32.58;15.60;;;;;;;;;;5089485;28;20013;-85
2021/12/08 04:15:33;;;;;;;37.00;15.50;;;;;;;;;;5080278;28;20013;-84
2021/12/08 04:17:58;;;;;;;38.83;16.85;;;;;;;;;;5080215;28;20025;-85
2021/12/08 04:20:28;;;;;;;42.72;17.55;;;;;;;;;;5080865;28;20052;-84
2021/12/08 04:22:54;;;;;;;40.67;17.60;;;;;;;;;;5080270;28;20037;-84
2021/12/08 04:25:23;;;;;;;38.22;16.17;;;;;;;;;;5080020;28;20033;-84
2021/12/08 04:27:50;;;;;;;36.03;16.58;;;;;;;;;;5040855;28;20489;-85
2021/12/08 04:30:27;;;;;;;39.85;16.20;;;;;;;;;;5037981;28;20055;-85
2021/12/08 04:32:53;;;;;;;38.55;16.77;;;;;;;;;;5054371;28;20029;-85
2021/12/08 04:35:20;;;;;;;39.38;16.77;;;;;;;;;;5056570;28;20535;-85
2021/12/08 04:37:49;;;;;;;37.78;16.77;;;;;;;;;;5055539;28;20138;-85
2021/12/08 04:40:27;;;;;;;38.05;15.88;;;;;;;;;;5038709;28;20040;-85
2021/12/08 04:45:41;;;;;;;45.05;17.13;;;;;;;;;;5054922;28;20025;-86
2021/12/08 04:53:13;;;;;;;45.78;18.38;;;;;;;;;;5056198;28;20032;-87
2021/12/08 05:01:20;;;;;;;42.45;18.50;;;;;;;;;;5054851;28;20094;-86
2021/12/08 05:09:34;;;;;;;54.95;23.58;;;;;;;;;;4994819;28;20417;-86
2021/12/08 05:12:20;;;;;;;51.25;19.67;;;;;;;;;;5011937;28;20038;-78
2021/12/08 05:14:59;;;;;;;43.05;18.77;;;;;;;;;;5023215;28;20040;-78
2021/12/08 05:17:30;;;;;;;35.03;16.73;;;;;;;;;;5055471;28;20028;-78
2021/12/08 05:19:57;;;;;;;41.30;18.48;;;;;;;;;;5071320;28;20029;-80
2021/12/08 05:22:28;;;;;;;44.78;19.48;;;;;;;;;;5038570;28;20074;-80
2021/12/08 05:24:54;;;;;;;44.55;18.20;;;;;;;;;;5071599;28;20078;-77
2021/12/08 05:27:23;;;;;;;43.92;19.27;;;;;;;;;;5056628;28;20116;-83
2021/12/08 05:29:53;;;;;;;42.00;17.63;;;;;;;;;;5055553;28;20043;-83
2021/12/08 05:32:19;;;;;;;37.50;17.08;;;;;;;;;;5055701;28;20048;-82
2021/12/08 05:34:45;;;;;;;44.95;20.17;;;;;;;;;;5055617;28;20494;-82
2021/12/08 05:37:11;;;;;;;43.17;18.30;;;;;;;;;;5038741;28;20029;-84
2021/12/08 05:39:37;;;;;;;44.90;17.95;;;;;;;;;;5055013;28;20028;-83
2021/12/08 05:42:05;;;;;;;42.13;18.23;;;;;;;;;;5071579;28;20048;-84
2021/12/08 05:44:31;;;;;;;43.40;18.35;;;;;;;;;;5055246;28;20029;-85
2021/12/08 05:46:57;;;;;;;37.33;17.08;;;;;;;;;;5036199;28;20045;-84
2021/12/08 05:49:23;;;;;;;41.08;17.60;;;;;;;;;;5069688;28;20024;-83
2021/12/08 05:51:52;;;;;;;43.67;18.42;;;;;;;;;;5055535;28;20112;-85
2021/12/08 05:54:29;;;;;;;46.47;18.75;;;;;;;;;;5055448;28;20165;-85
2021/12/08 05:57:04;;;;;;;41.22;18.23;;;;;;;;;;5037718;28;20041;-82
2021/12/08 05:59:51;;;;;;;44.08;19.20;;;;;;;;;;5070960;28;20048;-85
2021/12/08 06:02:42;;;;;;;42.90;17.88;;;;;;;;;;5046172;28;20033;-84
2021/12/08 06:05:16;;;;;;;39.13;17.35;;;;;;;;;;5042644;28;20029;-86
2021/12/08 06:07:47;;;;;;;42.55;19.35;;;;;;;;;;5045455;28;20139;-84
2021/12/08 06:10:26;;;;;;;39.40;18.02;;;;;;;;;;5044700;28;20108;-83
2021/12/08 06:12:54;;;;;;;42.40;18.73;;;;;;;;;;5019507;28;20436;-80
2021/12/08 06:15:20;;;;;;;43.55;18.00;;;;;;;;;;5046831;28;20440;-80
2021/12/08 06:17:46;;;;;;;45.30;20.00;;;;;;;;;;5065340;28;20025;-77
2021/12/08 06:20:13;;;;;;;33.03;15.23;;;;;;;;;;5066983;28;20024;-79
2021/12/08 06:22:39;;;;;;;45.00;19.52;;;;;;;;;;5049529;28;20025;-80
2021/12/08 06:25:06;;;;;;;45.47;19.23;;;;;;;;;;5049483;28;20040;-78
2021/12/08 06:27:32;;;;;;;44.58;19.48;;;;;;;;;;5052283;28;20091;-81
2021/12/08 06:29:57;;;;;;;42.20;17.75;;;;;;;;;;5032675;28;20029;-80
2021/12/08 06:32:23;;;;;;;49.92;21.35;;;;;;;;;;5051800;28;20029;-82
2021/12/08 06:34:52;;;;;;;48.80;20.10;;;;;;;;;;5053000;28;20025;-80
2021/12/08 06:37:21;;;;;;;51.33;21.65;;;;;;;;;;5037960;28;20036;-81
2021/12/08 06:39:52;;;;;;;56.53;22.42;;;;;;;;;;5036550;28;20147;-80
2021/12/08 06:42:23;;;;;;;55.72;22.30;;;;;;;;;;5036805;28;20259;-79
2021/12/08 06:44:50;;;;;;;51.67;22.38;;;;;;;;;;5069600;28;20403;-81
2021/12/08 06:47:28;;;;;;;59.67;22.75;;;;;;;;;;5034931;28;20087;-80
2021/12/08 06:50:03;;;;;;;54.28;22.40;;;;;;;;;;5057928;28;20102;-82
2021/12/08 06:52:38;;;;;;;49.10;20.83;;;;;;;;;;5040709;28;20037;-81
2021/12/08 06:55:41;;;;;;;53.95;21.85;;;;;;;;;;5057513;28;20412;-83
2021/12/08 06:58:12;;;;;;;53.78;20.85;;;;;;;;;;5011615;28;20445;-80
2021/12/08 07:00:50;;;;;;;51.65;22.08;;;;;;;;;;5048379;28;20563;-81
2021/12/08 07:03:35;;;;;;;53.15;22.73;;;;;;;;;;5014628;28;20072;-84
2021/12/08 07:06:09;;;;;;;50.03;22.33;;;;;;;;;;5046218;28;20029;-83
2021/12/08 07:08:55;;;;;;;53.22;23.88;;;;;;;;;;5047133;28;20436;-82
2021/12/08 07:11:21;;;;;;;47.25;20.20;;;;;;;;;;5030839;28;20033;-80
2021/12/08 07:13:47;;;;;;;47.22;21.85;;;;;;;;;;5029040;28;20124;-80
2021/12/08 07:16:20;;;;;;;51.42;21.40;;;;;;;;;;5029335;28;20468;-81
2021/12/08 07:19:02;;;;;;;47.75;21.98;;;;;;;;;;5045297;28;20091;-82
2021/12/08 07:21:31;;;;;;;47.42;20.27;;;;;;;;;;5044756;28;20025;-81
2021/12/08 07:24:02;;;;;;;49.20;20.52;;;;;;;;;;5048721;28;20025;-80
2021/12/08 07:26:30;;;;;;;49.03;21.20;;;;;;;;;;5046873;28;20059;-79
2021/12/08 07:28:56;;;;;;;51.63;21.98;;;;;;;;;;5033144;28;20071;-79
2021/12/08 07:31:34;;;;;;;51.72;21.23;;;;;;;;;;5047359;28;20435;-81
2021/12/08 07:34:04;;;;;;;55.08;22.13;;;;;;;;;;5049002;28;20449;-80
2021/12/08 07:36:32;;;;;;;59.58;25.33;;;;;;;;;;5035344;28;20026;-79
2021/12/08 07:38:59;;;;;;;83.30;35.28;;;;;;;;;;5037160;28;20420;-78
2021/12/08 07:41:32;;;;;;;51.42;22.55;;;;;;;;;;5032312;28;20107;-77
2021/12/08 07:44:00;;;;;;;55.15;24.70;;;;;;;;;;5049055;28;20368;-77
2021/12/08 07:46:36;;;;;;;54.72;23.83;;;;;;;;;;5029466;28;20037;-79
2021/12/08 07:49:17;;;;;;;52.47;23.13;;;;;;;;;;5044900;28;20036;-78
2021/12/08 07:51:58;;;;;;;48.72;22.25;;;;;;;;;;5046571;28;20029;-77
2021/12/08 07:54:23;;;;;;;40.95;18.23;;;;;;;;;;5048670;28;20452;-80
2021/12/08 07:56:53;;;;;;;41.75;17.38;;;;;;;;;;5031625;28;20081;-79
2021/12/08 07:59:19;;;;;;;38.50;18.23;;;;;;;;;;5066040;28;20433;-79
2021/12/08 08:01:58;;;;;;;41.55;18.95;;;;;;;;;;5035503;28;20029;-79
2021/12/08 08:04:25;;;;;;;45.50;19.55;;;;;;;;;;5051501;28;20060;-79
2021/12/08 08:06:53;;;;;;;39.22;18.73;;;;;;;;;;5035416;28;20028;-79
2021/12/08 08:09:22;;;;;;;45.55;20.00;;;;;;;;;;5056550;28;20029;-81
2021/12/08 08:11:55;;;;;;;43.22;19.88;;;;;;;;;;5075348;28;20067;-81
2021/12/08 08:14:21;;;;;;;41.67;19.80;;;;;;;;;;5039782;28;20021;-79
2021/12/08 08:16:50;;;;;;;46.95;20.23;;;;;;;;;;5056774;28;20025;-82
2021/12/08 08:19:19;;;;;;;46.27;20.30;;;;;;;;;;5058502;28;20059;-81
2021/12/08 08:21:49;;;;;;;40.20;18.58;;;;;;;;;;5039279;28;20021;-79
2021/12/08 08:24:18;;;;;;;50.30;21.98;;;;;;;;;;5055260;28;20071;-79
2021/12/08 08:27:03;;;;;;;35.90;16.35;;;;;;;;;;5065337;22;20029;-78
2021/12/08 08:29:29;;;;;;;37.75;17.73;;;;;;;;;;5075581;28;20060;-78
2021/12/08 08:32:27;;;;;;;45.15;19.25;;;;;;;;;;5074989;28;20063;-78
2021/12/08 08:34:57;;;;;;;40.15;18.58;;;;;;;;;;5072715;28;20104;-79
2021/12/08 08:37:22;;;;;;;34.72;16.25;;;;;;;;;;5061104;28;20063;-79
2021/12/08 08:39:54;;;;;;;44.28;18.55;;;;;;;;;;5080573;28;20032;-80
2021/12/08 08:42:25;;;;;;;34.03;15.65;;;;;;;;;;5074652;28;20055;-80
2021/12/08 08:44:58;;;;;;;32.47;15.55;;;;;;;;;;5073241;28;20024;-78
2021/12/08 08:47:36;;;;;;;27.63;13.68;;;;;;;;;;5073687;28;20037;-77
2021/12/08 08:50:06;;;;;;;32.45;15.27;;;;;;;;;;5071518;28;20107;-77
2021/12/08 08:52:45;;;;;;;31.88;14.77;;;;;;;;;;5073521;28;20025;-77
2021/12/08 08:55:14;;;;;;;37.75;17.50;;;;;;;;;;5074988;28;20037;-77
2021/12/08 08:57:45;;;;;;;29.80;15.18;;;;;;;;;;5086713;28;20053;-79
2021/12/08 09:00:31;;;;;;;28.77;14.60;;;;;;;;;;5074587;28;20078;-79
2021/12/08 09:03:03;;;;;;;35.80;17.23;;;;;;;;;;5051586;28;20033;-77
2021/12/08 09:05:43;;;;;;;33.90;15.80;;;;;;;;;;5050474;28;20095;-79
2021/12/08 09:08:09;;;;;;;38.75;17.58;;;;;;;;;;5053475;28;20468;-80
2021/12/08 09:10:53;;;;;;;38.75;17.02;;;;;;;;;;5055489;28;20116;-81
2021/12/08 09:13:29;;;;;;;32.65;16.08;;;;;;;;;;5069447;28;20032;-80
2021/12/08 09:15:57;;;;;;;34.58;15.93;;;;;;;;;;5056369;28;20040;-80
2021/12/08 09:18:29;;;;;;;37.75;16.58;;;;;;;;;;5073712;28;20029;-79
2021/12/08 09:21:22;;;;;;;29.77;14.68;;;;;;;;;;5053561;28;20091;-80
2021/12/08 09:23:58;;;;;;;36.58;15.45;;;;;;;;;;5053423;28;20175;-80
2021/12/08 09:26:25;;;;;;;25.17;12.82;;;;;;;;;;5051044;28;20029;-79
2021/12/08 09:28:57;;;;;;;33.88;16.38;;;;;;;;;;5068819;28;20404;-78
2021/12/08 09:31:37;;;;;;;31.60;15.43;;;;;;;;;;5055989;28;20459;-79
2021/12/08 09:34:16;;;;;;;30.15;14.82;;;;;;;;;;5052930;28;20064;-79
2021/12/08 09:36:46;;;;;;;24.63;12.63;;;;;;;;;;5055355;28;20170;-78
2021/12/08 09:39:20;;;;;;;31.17;13.75;;;;;;;;;;5056154;28;20021;-79
2021/12/08 09:42:26;;;;;;;31.73;16.13;;;;;;;;;;5070854;28;20031;-77
2021/12/08 09:45:01;;;;;;;34.90;16.60;;;;;;;;;;5037257;28;20107;-81
2021/12/08 09:47:37;;;;;;;32.38;15.60;;;;;;;;;;5034862;28;20037;-78
2021/12/08 09:50:04;;;;;;;32.70;15.77;;;;;;;;;;5064352;28;20464;-79
2021/12/08 09:52:30;;;;;;;35.45;16.40;;;;;;;;;;5071275;28;20024;-81
2021/12/08 09:54:57;;;;;;;35.17;16.30;;;;;;;;;;5070048;28;20032;-80
2021/12/08 09:57:23;;;;;;;43.35;20.48;;;;;;;;;;5072494;28;20082;-77
2021/12/08 09:59:49;;;;;;;36.60;18.23;;;;;;;;;;5071586;28;20024;-78
2021/12/08 10:02:26;;;;;;;39.20;16.80;;;;;;;;;;5070199;28;20059;-78
2021/12/08 10:04:55;;;;;;;35.08;15.60;;;;;;;;;;5085222;28;20098;-78
2021/12/08 10:07:20;;;;;;;32.65;16.08;;;;;;;;;;5086123;28;20040;-79
2021/12/08 10:09:48;;;;;;;34.83;16.85;;;;;;;;;;5068523;28;20090;-80
2021/12/08 10:12:14;;;;;;;37.20;18.55;;;;;;;;;;5070440;28;20024;-78
2021/12/08 10:14:39;;;;;;;32.95;16.27;;;;;;;;;;5072329;28;20095;-78
2021/12/08 10:17:08;;;;;;;34.97;17.55;;;;;;;;;;5080531;28;20024;-79
2021/12/08 10:19:33;;;;;;;30.55;15.57;;;;;;;;;;5071516;28;20032;-77
2021/12/08 10:22:01;;;;;;;32.80;13.43;;;;;;;;;;5071636;28;20028;-78
2021/12/08 10:24:28;;;;;;;28.85;14.50;;;;;;;;;;5071613;28;20032;-79
2021/12/08 10:27:02;;;;;;;24.85;12.52;;;;;;;;;;5054534;28;20079;-78
2021/12/08 10:29:28;;;;;;;26.13;12.95;;;;;;;;;;5089529;28;20257;-77
2021/12/08 10:31:54;;;;;;;20.73;9.73;;;;;;;;;;5071651;28;20043;-77
2021/12/08 10:34:26;;;;;;;27.45;14.20;;;;;;;;;;5072690;28;20062;-78
2021/12/08 10:36:59;;;;;;;37.47;17.60;;;;;;;;;;5065170;28;20036;-78
2021/12/08 10:40:15;;;;;;;28.88;15.30;;;;;;;;;;5073824;28;20024;-79
2021/12/08 10:43:29;;;;;;;29.58;14.75;;;;;;;;;;5035236;28;20041;-77
2021/12/08 10:46:03;;;;;;;28.55;13.95;;;;;;;;;;5019824;28;20046;-79
2021/12/08 10:48:42;;;;;;;34.55;14.48;;;;;;;;;;5065890;28;20036;-80
2021/12/08 10:54:27;;;;;;;25.67;13.43;;;;;;;;;;5067374;28;20177;-78
2021/12/08 10:56:57;;;;;;;22.98;12.05;;;;;;;;;;5075218;28;20031;-78
2021/12/08 10:59:25;;;;;;;;;;;;;;;;;;5073277;28;20432;-80
2021/12/08 11:01:51;;;;;;;36.78;15.10;;;;;;;;;;5087399;28;20011;-78
2021/12/08 11:04:20;;;;;;;39.50;15.95;;;;;;;;;;5070175;28;20036;-79
2021/12/08 11:07:05;;;;;;;34.45;15.73;;;;;;;;;;5055196;28;20052;-77
2021/12/08 11:09:38;;;;;;;29.70;15.15;;;;;;;;;;5071904;28;20033;-81
2021/12/08 11:12:04;;;;;;;28.27;13.45;;;;;;;;;;5073249;28;21325;-77
2021/12/08 11:14:45;;;;;;;32.15;16.05;;;;;;;;;;5072942;28;20111;-78
2021/12/08 11:17:27;;;;;;;25.83;13.52;;;;;;;;;;5057880;28;20029;-76
2021/12/08 11:20:14;;;;;;;28.50;14.40;;;;;;;;;;5072499;28;20073;-77
2021/12/08 11:23:08;;;;;;;29.92;13.38;;;;;;;;;;5073393;28;20043;-77
2021/12/08 11:25:46;;;;;;;29.95;16.02;;;;;;;;;;5051393;28;20596;-78
2021/12/08 11:28:29;;;;;;;22.52;12.38;;;;;;;;;;5071798;28;20064;-78
2021/12/08 11:31:06;;;;;;;31.10;12.45;;;;;;;;;;5071463;28;20528;-76
2021/12/08 11:33:31;;;;;;;26.42;13.95;;;;;;;;;;5069841;28;20037;-77
2021/12/08 11:37:05;;;;;;;28.65;13.80;;;;;;;;;;5071429;28;20036;-77
2021/12/08 11:39:34;;;;;;;30.02;14.55;;;;;;;;;;5028234;28;20111;-80
2021/12/08 11:42:29;;;;;;;22.55;11.13;;;;;;;;;;5075301;28;20044;-79
2021/12/08 11:44:57;;;;;;;31.17;16.00;;;;;;;;;;5074780;28;20067;-79
2021/12/08 11:47:27;;;;;;;25.80;12.48;;;;;;;;;;5072208;28;20085;-77
2021/12/08 11:49:55;;;;;;;30.38;14.07;;;;;;;;;;5086600;28;20028;-81
2021/12/08 11:52:23;;;;;;;31.80;14.98;;;;;;;;;;5061745;28;20029;-80
2021/12/08 11:54:56;;;;;;;32.35;15.38;;;;;;;;;;5084398;28;20025;-76
2021/12/08 11:57:23;;;;;;;29.42;14.23;;;;;;;;;;5079047;28;20032;-77
2021/12/08 12:00:10;;;;;;;26.67;14.43;;;;;;;;;;5073351;28;20032;-78
2021/12/08 12:02:44;;;;;;;27.88;13.45;;;;;;;;;;5053928;28;20123;-77
2021/12/08 12:05:15;;;;;;;29.90;14.52;;;;;;;;;;5068668;28;20466;-78
2021/12/08 12:07:40;;;;;;;;;;;;;;;;;;5074136;28;20029;-77
2021/12/08 12:10:11;;;;;;;32.65;14.82;;;;;;;;;;5082540;28;19924;-79
2021/12/08 12:12:38;;;;;;;29.88;14.07;;;;;;;;;;5066206;28;20047;-77
2021/12/08 12:15:08;;;;;;;25.00;13.15;;;;;;;;;;5082523;28;20040;-78
2021/12/08 12:17:33;;;;;;;26.75;12.70;;;;;;;;;;5078066;28;20021;-80
2021/12/08 12:20:05;;;;;;;28.85;14.35;;;;;;;;;;5075577;28;20359;-79
2021/12/08 12:22:54;;;;;;;31.45;15.07;;;;;;;;;;5076626;28;20059;-78
2021/12/08 12:25:40;;;;;;;29.02;14.95;;;;;;;;;;5073346;22;20099;-79
2021/12/08 12:28:27;;;;;;;22.33;10.65;;;;;;;;;;5003956;28;20041;-77
2021/12/08 12:31:24;;;;;;;33.08;14.27;;;;;;;;;;5032504;28;20090;-78
2021/12/08 12:33:50;;;;;;;28.85;12.57;;;;;;;;;;5027257;28;20053;-80
2021/12/08 12:36:27;;;;;;;22.52;11.93;;;;;;;;;;5036566;28;20456;-80
2021/12/08 12:38:53;;;;;;;30.17;13.90;;;;;;;;;;5033540;28;20036;-80
2021/12/08 12:41:32;;;;;;;21.10;11.35;;;;;;;;;;5017310;28;20029;-80
2021/12/08 12:44:16;;;;;;;24.88;12.48;;;;;;;;;;5032927;28;20087;-79
2021/12/08 12:47:04;;;;;;;24.83;11.57;;;;;;;;;;5035720;28;20435;-80
2021/12/08 12:49:29;;;;;;;32.60;15.23;;;;;;;;;;5034848;28;20063;-81
2021/12/08 12:52:04;;;;;;;33.15;15.18;;;;;;;;;;5016292;28;20114;-80
2021/12/08 12:54:30;;;;;;;42.90;18.27;;;;;;;;;;5034830;28;20028;-79
2021/12/08 12:56:56;;;;;;;29.92;14.48;;;;;;;;;;5017787;28;20026;-79
2021/12/08 12:59:23;;;;;;;31.20;14.40;;;;;;;;;;5014885;28;20040;-78
2021/12/08 13:02:17;;;;;;;29.92;14.68;;;;;;;;;;5032014;28;20112;-79
2021/12/08 13:04:54;;;;;;;27.48;13.48;;;;;;;;;;5017059;28;20104;-78
2021/12/08 13:07:19;;;;;;;49.10;23.48;;;;;;;;;;5032856;28;20094;-74
2021/12/08 13:09:53;;;;;;;40.03;16.98;;;;;;;;;;5033696;28;20245;-75
2021/12/08 13:12:38;;;;;;;28.65;14.23;;;;;;;;;;5017857;28;20032;-74
2021/12/08 13:15:16;;;;;;;29.98;13.75;;;;;;;;;;5033109;28;20037;-75
2021/12/08 13:18:01;;;;;;;26.55;13.50;;;;;;;;;;5035532;28;20411;-75
2021/12/08 13:20:28;;;;;;;30.42;14.57;;;;;;;;;;5017684;28;20032;-76
2021/12/08 13:22:55;;;;;;;31.33;14.88;;;;;;;;;;5000461;28;20053;-76
2021/12/08 13:25:25;;;;;;;31.33;14.88;;;;;;;;;;5016842;28;20049;-75
2021/12/08 13:27:56;;;;;;;24.77;12.57;;;;;;;;;;5000553;28;20107;-73
2021/12/08 13:30:21;;;;;;;26.85;13.88;;;;;;;;;;5000667;28;20029;-79
2021/12/08 13:32:56;;;;;;;21.55;11.93;;;;;;;;;;5003165;28;20116;-78
2021/12/08 13:35:53;;;;;;;32.55;13.95;;;;;;;;;;4992081;28;20033;-79
2021/12/08 13:38:18;;;;;;;29.17;13.80;;;;;;;;;;5013555;28;20042;-78
2021/12/08 13:40:47;;;;;;;31.30;15.18;;;;;;;;;;4999416;28;20033;-79
2021/12/08 13:43:31;;;;;;;35.40;16.58;;;;;;;;;;5000707;28;20026;-78
2021/12/08 13:45:57;;;;;;;32.97;15.00;;;;;;;;;;5000673;28;20124;-77
2021/12/08 13:48:24;;;;;;;37.90;18.05;;;;;;;;;;5001039;28;20120;-79
2021/12/08 13:50:50;;;;;;;32.70;14.52;;;;;;;;;;5017236;28;20025;-78
2021/12/08 13:53:16;;;;;;;32.70;13.98;;;;;;;;;;5008135;28;20017;-79
2021/12/08 13:55:43;;;;;;;39.47;18.67;;;;;;;;;;5024285;28;20425;-78
2021/12/08 13:58:16;;;;;;;41.30;17.05;;;;;;;;;;5034898;28;20029;-78
2021/12/08 14:00:54;;;;;;;45.55;19.50;;;;;;;;;;4984758;28;20060;-79
2021/12/08 14:03:21;;;;;;;45.55;18.88;;;;;;;;;;5016247;28;20025;-80
2021/12/08 14:05:49;;;;;;;43.17;19.30;;;;;;;;;;4984733;28;20025;-79
2021/12/08 14:08:18;;;;;;;44.05;19.63;;;;;;;;;;5034548;28;20110;-78
2021/12/08 14:10:45;;;;;;;42.17;18.48;;;;;;;;;;5017670;28;20380;-79
2021/12/08 14:13:26;;;;;;;39.33;16.55;;;;;;;;;;5006493;28;20041;-79
2021/12/08 14:15:55;;;;;;;43.17;18.35;;;;;;;;;;5001911;28;20033;-78
2021/12/08 14:18:26;;;;;;;41.22;17.77;;;;;;;;;;5016950;28;20104;-79
2021/12/08 14:20:55;;;;;;;40.35;18.05;;;;;;;;;;5034494;28;20041;-79
2021/12/08 14:23:21;;;;;;;47.45;18.73;;;;;;;;;;5034327;28;20091;-80
2021/12/08 14:26:14;;;;;;;59.45;22.35;;;;;;;;;;5034029;28;20041;-78
2021/12/08 14:28:53;;;;;;;53.75;21.08;;;;;;;;;;5032055;28;20091;-78
2021/12/08 14:31:35;;;;;;;56.30;21.15;;;;;;;;;;5016694;28;20022;-78
2021/12/08 14:34:08;;;;;;;51.30;21.35;;;;;;;;;;5034749;28;20459;-79
2021/12/08 14:36:54;;;;;;;45.55;19.23;;;;;;;;;;5034493;28;20057;-79
2021/12/08 14:39:44;;;;;;;39.28;18.40;;;;;;;;;;5016079;28;20041;-79
2021/12/08 14:42:39;;;;;;;46.65;19.20;;;;;;;;;;5016928;28;20071;-79
2021/12/08 14:45:10;;;;;;;53.38;21.02;;;;;;;;;;5029593;28;20064;-78
2021/12/08 14:47:38;;;;;;;47.42;20.52;;;;;;;;;;5016662;28;20040;-78
2021/12/08 14:50:08;;;;;;;47.15;20.33;;;;;;;;;;5016795;28;20452;-79
2021/12/08 14:52:35;;;;;;;40.75;19.55;;;;;;;;;;5035971;28;20167;-77
2021/12/08 14:55:01;;;;;;;52.92;21.40;;;;;;;;;;5038620;28;20040;-75
2021/12/08 14:57:27;;;;;;;49.40;22.38;;;;;;;;;;5016456;28;20029;-79
2021/12/08 15:00:15;;;;;;;54.38;23.05;;;;;;;;;;5016403;28;20037;-79
2021/12/08 15:02:45;;;;;;;55.33;24.08;;;;;;;;;;5033704;28;20044;-78
2021/12/08 15:05:16;;;;;;;47.90;20.83;;;;;;;;;;5033950;28;20029;-77
2021/12/08 15:07:41;;;;;;;57.13;24.70;;;;;;;;;;5033543;28;20048;-78
2021/12/08 15:10:12;;;;;;;61.42;25.20;;;;;;;;;;5016473;28;20029;-78
2021/12/08 15:12:40;;;;;;;55.55;25.92;;;;;;;;;;5000390;28;20057;-78
2021/12/08 15:15:19;;;;;;;59.38;25.70;;;;;;;;;;5020134;28;20033;-78
2021/12/08 15:17:45;;;;;;;65.85;27.48;;;;;;;;;;5004405;28;20068;-77
2021/12/08 15:20:12;;;;;;;57.70;26.17;;;;;;;;;;5003982;28;20033;-77
2021/12/08 15:22:45;;;;;;;63.63;27.30;;;;;;;;;;5037502;28;20123;-78
2021/12/08 15:25:16;;;;;;;57.28;24.30;;;;;;;;;;5020228;28;20041;-78